sensor_id;sensor_type;location;lat;lon;timestamp;P1;durP1;ratioP1;P2;durP2;ratioP2
50932;SDS011;36921;49.006;9.292;2023-03-01T00:01:05;19.27;;;8.95;;
50932;SDS011;36921;49.006;9.292;2023-03-01T00:03:33;21.30;;;9.13;;
50932;SDS011;36921;49.006;9.292;2023-03-01T00:05:59;20.63;;;9.52;;
50932;SDS011;36921;49.006;9.292;2023-03-01T00:08:25;28.33;;;9.57;;
50932;SDS011;36921;49.006;9.292;2023-03-01T00:11:51;17.77;;;9.13;;
50932;SDS011;36921;49.006;9.292;2023-03-01T00:13:47;22.83;;;8.85;;
50932;SDS011;36921;49.006;9.292;2023-03-01T00:16:19;22.10;;;10.27;;
50932;SDS011;36921;49.006;9.292;2023-03-01T00:18:49;18.33;;;9.32;;
50932;SDS011;36921;49.006;9.292;2023-03-01T00:21:15;21.05;;;8.65;;
50932;SDS011;36921;49.006;9.292;2023-03-01T00:23:41;23.33;;;9.82;;
50932;SDS011;36921;49.006;9.292;2023-03-01T00:26:08;22.85;;;9.10;;
50932;SDS011;36921;49.006;9.292;2023-03-01T00:28:35;18.23;;;7.67;;
50932;SDS011;36921;49.006;9.292;2023-03-01T00:31:05;23.52;;;10.35;;
50932;SDS011;36921;49.006;9.292;2023-03-01T00:33:32;19.98;;;9.75;;
50932;SDS011;36921;49.006;9.292;2023-03-01T00:35:58;21.15;;;9.40;;
50932;SDS011;36921;49.006;9.292;2023-03-01T00:38:24;21.63;;;9.73;;
50932;SDS011;36921;49.006;9.292;2023-03-01T00:40:49;20.83;;;9.82;;
50932;SDS011;36921;49.006;9.292;2023-03-01T00:43:14;17.88;;;8.98;;
50932;SDS011;36921;49.006;9.292;2023-03-01T00:45:41;27.75;;;10.20;;
50932;SDS011;36921;49.006;9.292;2023-03-01T00:48:06;19.67;;;9.57;;
50932;SDS011;36921;49.006;9.292;2023-03-01T00:50:32;23.13;;;9.70;;
50932;SDS011;36921;49.006;9.292;2023-03-01T00:52:57;24.50;;;10.02;;
50932;SDS011;36921;49.006;9.292;2023-03-01T00:55:23;22.50;;;9.68;;
50932;SDS011;36921;49.006;9.292;2023-03-01T00:57:49;25.55;;;10.57;;
50932;SDS011;36921;49.006;9.292;2023-03-01T01:00:14;25.85;;;11.20;;
50932;SDS011;36921;49.006;9.292;2023-03-01T01:02:40;22.90;;;10.50;;
50932;SDS011;36921;49.006;9.292;2023-03-01T01:05:05;26.15;;;10.95;;
50932;SDS011;36921;49.006;9.292;2023-03-01T01:07:31;22.63;;;10.52;;
50932;SDS011;36921;49.006;9.292;2023-03-01T01:09:56;23.17;;;9.73;;
50932;SDS011;36921;49.006;9.292;2023-03-01T01:12:22;21.80;;;10.20;;
50932;SDS011;36921;49.006;9.292;2023-03-01T01:14:47;23.95;;;10.77;;
50932;SDS011;36921;49.006;9.292;2023-03-01T01:17:13;22.08;;;9.70;;
50932;SDS011;36921;49.006;9.292;2023-03-01T01:19:38;19.80;;;10.05;;
50932;SDS011;36921;49.006;9.292;2023-03-01T01:22:04;25.25;;;10.40;;
50932;SDS011;36921;49.006;9.292;2023-03-01T01:24:30;23.05;;;10.48;;
50932;SDS011;36921;49.006;9.292;2023-03-01T01:26:55;23.30;;;9.85;;
50932;SDS011;36921;49.006;9.292;2023-03-01T01:29:20;20.92;;;10.00;;
50932;SDS011;36921;49.006;9.292;2023-03-01T01:31:46;25.15;;;10.50;;
50932;SDS011;36921;49.006;9.292;2023-03-01T01:34:16;22.08;;;11.02;;
50932;SDS011;36921;49.006;9.292;2023-03-01T01:36:44;27.38;;;10.35;;
50932;SDS011;36921;49.006;9.292;2023-03-01T01:39:13;25.38;;;10.82;;
50932;SDS011;36921;49.006;9.292;2023-03-01T01:41:39;24.73;;;10.77;;
50932;SDS011;36921;49.006;9.292;2023-03-01T01:49:19;27.75;;;11.52;;
50932;SDS011;36921;49.006;9.292;2023-03-01T01:51:55;23.33;;;10.43;;
50932;SDS011;36921;49.006;9.292;2023-03-01T01:54:31;22.70;;;11.10;;
50932;SDS011;36921;49.006;9.292;2023-03-01T01:57:04;22.63;;;10.85;;
50932;SDS011;36921;49.006;9.292;2023-03-01T01:59:33;24.20;;;11.95;;
50932;SDS011;36921;49.006;9.292;2023-03-01T02:01:59;25.35;;;10.68;;
50932;SDS011;36921;49.006;9.292;2023-03-01T02:04:27;27.70;;;10.65;;
50932;SDS011;36921;49.006;9.292;2023-03-01T02:07:36;24.30;;;10.75;;
50932;SDS011;36921;49.006;9.292;2023-03-01T02:09:47;24.75;;;10.35;;
50932;SDS011;36921;49.006;9.292;2023-03-01T02:12:16;22.80;;;10.25;;
50932;SDS011;36921;49.006;9.292;2023-03-01T02:14:43;23.27;;;10.25;;
50932;SDS011;36921;49.006;9.292;2023-03-01T02:17:09;24.45;;;10.57;;
50932;SDS011;36921;49.006;9.292;2023-03-01T02:20:00;24.58;;;10.82;;
50932;SDS011;36921;49.006;9.292;2023-03-01T02:22:45;22.95;;;10.52;;
50932;SDS011;36921;49.006;9.292;2023-03-01T02:30:26;23.13;;;10.63;;
50932;SDS011;36921;49.006;9.292;2023-03-01T02:32:53;24.58;;;10.63;;
50932;SDS011;36921;49.006;9.292;2023-03-01T02:35:27;22.15;;;10.35;;
50932;SDS011;36921;49.006;9.292;2023-03-01T02:38:00;21.90;;;9.88;;
50932;SDS011;36921;49.006;9.292;2023-03-01T02:40:27;23.87;;;10.37;;
50932;SDS011;36921;49.006;9.292;2023-03-01T02:42:56;23.88;;;10.40;;
50932;SDS011;36921;49.006;9.292;2023-03-01T02:45:24;21.40;;;10.05;;
50932;SDS011;36921;49.006;9.292;2023-03-01T02:47:53;21.55;;;10.60;;
50932;SDS011;36921;49.006;9.292;2023-03-01T02:55:41;22.58;;;10.63;;
50932;SDS011;36921;49.006;9.292;2023-03-01T02:58:06;23.17;;;10.68;;
50932;SDS011;36921;49.006;9.292;2023-03-01T03:00:34;24.60;;;11.00;;
50932;SDS011;36921;49.006;9.292;2023-03-01T03:03:05;25.35;;;10.60;;
50932;SDS011;36921;49.006;9.292;2023-03-01T03:05:31;25.63;;;10.48;;
50932;SDS011;36921;49.006;9.292;2023-03-01T03:07:58;20.55;;;10.18;;
50932;SDS011;36921;49.006;9.292;2023-03-01T03:10:29;23.17;;;10.43;;
50932;SDS011;36921;49.006;9.292;2023-03-01T03:13:00;27.27;;;11.60;;
50932;SDS011;36921;49.006;9.292;2023-03-01T03:15:28;21.00;;;10.13;;
50932;SDS011;36921;49.006;9.292;2023-03-01T03:17:54;22.65;;;10.57;;
50932;SDS011;36921;49.006;9.292;2023-03-01T03:20:21;20.35;;;10.35;;
50932;SDS011;36921;49.006;9.292;2023-03-01T03:22:48;24.95;;;10.05;;
50932;SDS011;36921;49.006;9.292;2023-03-01T03:25:16;18.40;;;9.07;;
50932;SDS011;36921;49.006;9.292;2023-03-01T03:27:43;19.88;;;10.50;;
50932;SDS011;36921;49.006;9.292;2023-03-01T03:30:10;20.90;;;9.18;;
50932;SDS011;36921;49.006;9.292;2023-03-01T03:32:39;19.75;;;8.45;;
50932;SDS011;36921;49.006;9.292;2023-03-01T03:35:06;21.30;;;9.75;;
50932;SDS011;36921;49.006;9.292;2023-03-01T03:37:37;20.42;;;10.07;;
50932;SDS011;36921;49.006;9.292;2023-03-01T03:40:28;21.98;;;10.27;;
50932;SDS011;36921;49.006;9.292;2023-03-01T03:42:56;25.67;;;11.23;;
50932;SDS011;36921;49.006;9.292;2023-03-01T03:45:22;24.65;;;11.00;;
50932;SDS011;36921;49.006;9.292;2023-03-01T03:47:47;20.17;;;9.80;;
50932;SDS011;36921;49.006;9.292;2023-03-01T03:50:14;21.50;;;10.20;;
50932;SDS011;36921;49.006;9.292;2023-03-01T03:52:41;22.02;;;9.73;;
50932;SDS011;36921;49.006;9.292;2023-03-01T03:55:09;24.13;;;10.45;;
50932;SDS011;36921;49.006;9.292;2023-03-01T03:57:39;19.88;;;10.00;;
50932;SDS011;36921;49.006;9.292;2023-03-01T04:00:07;26.45;;;10.40;;
50932;SDS011;36921;49.006;9.292;2023-03-01T04:02:41;21.90;;;10.60;;
50932;SDS011;36921;49.006;9.292;2023-03-01T04:05:08;22.52;;;11.13;;
50932;SDS011;36921;49.006;9.292;2023-03-01T04:07:35;23.63;;;10.77;;
50932;SDS011;36921;49.006;9.292;2023-03-01T04:10:05;23.73;;;11.05;;
50932;SDS011;36921;49.006;9.292;2023-03-01T04:12:33;24.23;;;11.18;;
50932;SDS011;36921;49.006;9.292;2023-03-01T04:15:00;21.90;;;11.05;;
50932;SDS011;36921;49.006;9.292;2023-03-01T04:17:25;20.10;;;10.55;;
50932;SDS011;36921;49.006;9.292;2023-03-01T04:19:51;26.08;;;11.00;;
50932;SDS011;36921;49.006;9.292;2023-03-01T04:22:16;25.63;;;11.38;;
50932;SDS011;36921;49.006;9.292;2023-03-01T04:24:43;22.58;;;10.60;;
50932;SDS011;36921;49.006;9.292;2023-03-01T04:27:09;26.15;;;11.10;;
50932;SDS011;36921;49.006;9.292;2023-03-01T04:29:35;25.25;;;10.27;;
50932;SDS011;36921;49.006;9.292;2023-03-01T04:32:00;22.90;;;10.15;;
50932;SDS011;36921;49.006;9.292;2023-03-01T04:34:26;23.33;;;10.60;;
50932;SDS011;36921;49.006;9.292;2023-03-01T04:36:51;22.75;;;11.65;;
50932;SDS011;36921;49.006;9.292;2023-03-01T04:39:17;22.65;;;10.82;;
50932;SDS011;36921;49.006;9.292;2023-03-01T04:41:42;28.83;;;12.10;;
50932;SDS011;36921;49.006;9.292;2023-03-01T04:44:08;28.38;;;11.40;;
50932;SDS011;36921;49.006;9.292;2023-03-01T04:46:34;28.58;;;11.00;;
50932;SDS011;36921;49.006;9.292;2023-03-01T04:49:01;25.55;;;11.20;;
50932;SDS011;36921;49.006;9.292;2023-03-01T04:51:27;26.42;;;10.77;;
50932;SDS011;36921;49.006;9.292;2023-03-01T04:53:52;22.15;;;10.88;;
50932;SDS011;36921;49.006;9.292;2023-03-01T04:56:18;25.58;;;11.02;;
50932;SDS011;36921;49.006;9.292;2023-03-01T04:58:57;28.33;;;11.93;;
50932;SDS011;36921;49.006;9.292;2023-03-01T05:01:26;22.75;;;11.30;;
50932;SDS011;36921;49.006;9.292;2023-03-01T05:03:52;25.40;;;11.18;;
50932;SDS011;36921;49.006;9.292;2023-03-01T05:06:18;25.52;;;11.07;;
50932;SDS011;36921;49.006;9.292;2023-03-01T05:11:21;25.48;;;11.32;;
50932;SDS011;36921;49.006;9.292;2023-03-01T05:16:53;23.40;;;10.82;;
50932;SDS011;36921;49.006;9.292;2023-03-01T05:19:19;26.27;;;10.95;;
50932;SDS011;36921;49.006;9.292;2023-03-01T05:21:47;27.63;;;11.90;;
50932;SDS011;36921;49.006;9.292;2023-03-01T05:24:32;27.45;;;10.93;;
50932;SDS011;36921;49.006;9.292;2023-03-01T05:26:59;29.37;;;12.10;;
50932;SDS011;36921;49.006;9.292;2023-03-01T05:29:26;23.10;;;11.30;;
50932;SDS011;36921;49.006;9.292;2023-03-01T05:31:58;24.73;;;10.93;;
50932;SDS011;36921;49.006;9.292;2023-03-01T05:34:26;27.58;;;12.57;;
50932;SDS011;36921;49.006;9.292;2023-03-01T05:36:52;23.92;;;11.70;;
50932;SDS011;36921;49.006;9.292;2023-03-01T05:39:22;29.63;;;12.20;;
50932;SDS011;36921;49.006;9.292;2023-03-01T05:41:53;31.45;;;11.63;;
50932;SDS011;36921;49.006;9.292;2023-03-01T05:44:20;26.77;;;13.05;;
50932;SDS011;36921;49.006;9.292;2023-03-01T05:46:45;30.33;;;12.75;;
50932;SDS011;36921;49.006;9.292;2023-03-01T05:49:11;28.25;;;12.63;;
50932;SDS011;36921;49.006;9.292;2023-03-01T05:51:38;26.95;;;12.10;;
50932;SDS011;36921;49.006;9.292;2023-03-01T05:54:04;27.40;;;11.23;;
50932;SDS011;36921;49.006;9.292;2023-03-01T05:56:32;24.83;;;11.55;;
50932;SDS011;36921;49.006;9.292;2023-03-01T05:59:00;24.70;;;11.20;;
50932;SDS011;36921;49.006;9.292;2023-03-01T06:01:26;24.90;;;12.00;;
50932;SDS011;36921;49.006;9.292;2023-03-01T06:03:51;30.33;;;11.88;;
50932;SDS011;36921;49.006;9.292;2023-03-01T06:06:17;24.48;;;11.20;;
50932;SDS011;36921;49.006;9.292;2023-03-01T06:08:42;25.33;;;12.43;;
50932;SDS011;36921;49.006;9.292;2023-03-01T06:11:08;22.27;;;10.80;;
50932;SDS011;36921;49.006;9.292;2023-03-01T06:13:34;28.55;;;11.85;;
50932;SDS011;36921;49.006;9.292;2023-03-01T06:15:59;31.38;;;11.65;;
50932;SDS011;36921;49.006;9.292;2023-03-01T06:18:24;28.27;;;11.95;;
50932;SDS011;36921;49.006;9.292;2023-03-01T06:20:53;27.83;;;12.02;;
50932;SDS011;36921;49.006;9.292;2023-03-01T06:23:20;31.27;;;12.63;;
50932;SDS011;36921;49.006;9.292;2023-03-01T06:25:45;29.75;;;11.88;;
50932;SDS011;36921;49.006;9.292;2023-03-01T06:28:11;28.88;;;11.55;;
50932;SDS011;36921;49.006;9.292;2023-03-01T06:30:36;25.13;;;11.13;;
50932;SDS011;36921;49.006;9.292;2023-03-01T06:33:02;26.05;;;11.93;;
50932;SDS011;36921;49.006;9.292;2023-03-01T06:35:31;28.02;;;11.95;;
50932;SDS011;36921;49.006;9.292;2023-03-01T06:37:58;26.55;;;11.30;;
50932;SDS011;36921;49.006;9.292;2023-03-01T06:40:24;28.10;;;11.18;;
50932;SDS011;36921;49.006;9.292;2023-03-01T06:42:50;24.67;;;11.13;;
50932;SDS011;36921;49.006;9.292;2023-03-01T06:45:18;22.58;;;10.93;;
50932;SDS011;36921;49.006;9.292;2023-03-01T06:47:44;24.80;;;11.13;;
50932;SDS011;36921;49.006;9.292;2023-03-01T06:50:10;18.67;;;10.10;;
50932;SDS011;36921;49.006;9.292;2023-03-01T06:52:36;22.48;;;11.10;;
50932;SDS011;36921;49.006;9.292;2023-03-01T06:55:01;22.65;;;11.35;;
50932;SDS011;36921;49.006;9.292;2023-03-01T06:57:27;23.63;;;11.57;;
50932;SDS011;36921;49.006;9.292;2023-03-01T06:59:53;22.45;;;11.30;;
50932;SDS011;36921;49.006;9.292;2023-03-01T07:02:19;21.33;;;10.70;;
50932;SDS011;36921;49.006;9.292;2023-03-01T07:04:44;24.50;;;11.07;;
50932;SDS011;36921;49.006;9.292;2023-03-01T07:07:10;22.27;;;11.35;;
50932;SDS011;36921;49.006;9.292;2023-03-01T07:09:38;20.93;;;10.63;;
50932;SDS011;36921;49.006;9.292;2023-03-01T07:12:04;20.67;;;11.00;;
50932;SDS011;36921;49.006;9.292;2023-03-01T07:14:30;22.65;;;11.10;;
50932;SDS011;36921;49.006;9.292;2023-03-01T07:16:56;24.45;;;11.95;;
50932;SDS011;36921;49.006;9.292;2023-03-01T07:19:21;23.02;;;11.43;;
50932;SDS011;36921;49.006;9.292;2023-03-01T07:21:47;20.88;;;11.70;;
50932;SDS011;36921;49.006;9.292;2023-03-01T07:24:13;24.70;;;11.13;;
50932;SDS011;36921;49.006;9.292;2023-03-01T07:26:38;27.23;;;11.75;;
50932;SDS011;36921;49.006;9.292;2023-03-01T07:29:05;21.35;;;12.45;;
50932;SDS011;36921;49.006;9.292;2023-03-01T07:31:32;24.08;;;12.63;;
50932;SDS011;36921;49.006;9.292;2023-03-01T07:33:58;22.70;;;12.13;;
50932;SDS011;36921;49.006;9.292;2023-03-01T07:36:23;23.55;;;12.70;;
50932;SDS011;36921;49.006;9.292;2023-03-01T07:38:49;19.63;;;11.73;;
50932;SDS011;36921;49.006;9.292;2023-03-01T07:41:15;24.70;;;11.80;;
50932;SDS011;36921;49.006;9.292;2023-03-01T07:43:40;20.65;;;11.75;;
50932;SDS011;36921;49.006;9.292;2023-03-01T07:46:06;22.73;;;12.73;;
50932;SDS011;36921;49.006;9.292;2023-03-01T07:48:32;20.55;;;11.68;;
50932;SDS011;36921;49.006;9.292;2023-03-01T07:50:58;20.25;;;11.68;;
50932;SDS011;36921;49.006;9.292;2023-03-01T07:53:28;21.27;;;12.27;;
50932;SDS011;36921;49.006;9.292;2023-03-01T07:56:03;23.08;;;12.82;;
50932;SDS011;36921;49.006;9.292;2023-03-01T07:58:30;24.02;;;12.88;;
50932;SDS011;36921;49.006;9.292;2023-03-01T08:00:55;23.30;;;12.35;;
50932;SDS011;36921;49.006;9.292;2023-03-01T08:03:21;21.58;;;11.90;;
50932;SDS011;36921;49.006;9.292;2023-03-01T08:05:46;20.15;;;12.68;;
50932;SDS011;36921;49.006;9.292;2023-03-01T08:08:11;19.85;;;12.23;;
50932;SDS011;36921;49.006;9.292;2023-03-01T08:10:37;21.13;;;12.18;;
50932;SDS011;36921;49.006;9.292;2023-03-01T08:13:02;23.88;;;12.57;;
50932;SDS011;36921;49.006;9.292;2023-03-01T08:15:27;18.20;;;12.02;;
50932;SDS011;36921;49.006;9.292;2023-03-01T08:17:53;24.05;;;12.80;;
50932;SDS011;36921;49.006;9.292;2023-03-01T08:20:18;25.02;;;12.23;;
50932;SDS011;36921;49.006;9.292;2023-03-01T08:22:43;20.30;;;12.52;;
50932;SDS011;36921;49.006;9.292;2023-03-01T08:25:09;23.77;;;12.13;;
50932;SDS011;36921;49.006;9.292;2023-03-01T08:27:34;23.02;;;12.13;;
50932;SDS011;36921;49.006;9.292;2023-03-01T08:30:00;17.23;;;11.70;;
50932;SDS011;36921;49.006;9.292;2023-03-01T08:32:25;18.25;;;12.38;;
50932;SDS011;36921;49.006;9.292;2023-03-01T08:34:50;19.40;;;12.48;;
50932;SDS011;36921;49.006;9.292;2023-03-01T08:37:16;22.40;;;12.45;;
50932;SDS011;36921;49.006;9.292;2023-03-01T08:39:41;18.70;;;12.63;;
50932;SDS011;36921;49.006;9.292;2023-03-01T08:42:06;25.20;;;12.90;;
50932;SDS011;36921;49.006;9.292;2023-03-01T08:44:32;19.67;;;12.30;;
50932;SDS011;36921;49.006;9.292;2023-03-01T08:46:57;19.42;;;11.90;;
50932;SDS011;36921;49.006;9.292;2023-03-01T08:49:23;19.08;;;12.88;;
50932;SDS011;36921;49.006;9.292;2023-03-01T08:51:48;16.70;;;11.98;;
50932;SDS011;36921;49.006;9.292;2023-03-01T08:54:18;18.27;;;11.90;;
50932;SDS011;36921;49.006;9.292;2023-03-01T08:56:45;22.30;;;12.82;;
50932;SDS011;36921;49.006;9.292;2023-03-01T08:59:14;24.65;;;12.38;;
50932;SDS011;36921;49.006;9.292;2023-03-01T09:01:40;19.15;;;12.80;;
50932;SDS011;36921;49.006;9.292;2023-03-01T09:04:08;16.90;;;11.90;;
50932;SDS011;36921;49.006;9.292;2023-03-01T09:06:35;22.35;;;12.43;;
50932;SDS011;36921;49.006;9.292;2023-03-01T09:09:02;22.02;;;12.30;;
50932;SDS011;36921;49.006;9.292;2023-03-01T09:11:28;21.05;;;13.05;;
50932;SDS011;36921;49.006;9.292;2023-03-01T09:13:55;16.48;;;11.68;;
50932;SDS011;36921;49.006;9.292;2023-03-01T09:16:21;18.88;;;11.57;;
50932;SDS011;36921;49.006;9.292;2023-03-01T09:18:53;17.85;;;12.10;;
50932;SDS011;36921;49.006;9.292;2023-03-01T09:21:20;18.52;;;12.30;;
50932;SDS011;36921;49.006;9.292;2023-03-01T09:23:47;17.40;;;12.32;;
50932;SDS011;36921;49.006;9.292;2023-03-01T09:26:15;16.63;;;11.82;;
50932;SDS011;36921;49.006;9.292;2023-03-01T09:28:43;15.25;;;11.55;;
50932;SDS011;36921;49.006;9.292;2023-03-01T09:31:09;17.40;;;11.68;;
50932;SDS011;36921;49.006;9.292;2023-03-01T09:33:38;17.13;;;12.57;;
50932;SDS011;36921;49.006;9.292;2023-03-01T09:36:05;18.40;;;12.07;;
50932;SDS011;36921;49.006;9.292;2023-03-01T09:38:32;17.38;;;11.90;;
50932;SDS011;36921;49.006;9.292;2023-03-01T09:40:59;18.67;;;12.38;;
50932;SDS011;36921;49.006;9.292;2023-03-01T09:43:43;15.32;;;11.65;;
50932;SDS011;36921;49.006;9.292;2023-03-01T09:46:13;17.85;;;11.43;;
50932;SDS011;36921;49.006;9.292;2023-03-01T09:48:48;19.05;;;12.68;;
50932;SDS011;36921;49.006;9.292;2023-03-01T09:51:21;17.98;;;12.27;;
50932;SDS011;36921;49.006;9.292;2023-03-01T09:53:51;15.52;;;11.75;;
50932;SDS011;36921;49.006;9.292;2023-03-01T09:56:20;16.60;;;12.27;;
50932;SDS011;36921;49.006;9.292;2023-03-01T10:01:29;19.38;;;11.93;;
50932;SDS011;36921;49.006;9.292;2023-03-01T10:04:03;18.13;;;12.05;;
50932;SDS011;36921;49.006;9.292;2023-03-01T10:06:37;15.30;;;11.10;;
50932;SDS011;36921;49.006;9.292;2023-03-01T10:09:07;16.33;;;11.73;;
50932;SDS011;36921;49.006;9.292;2023-03-01T10:11:38;16.92;;;12.77;;
50932;SDS011;36921;49.006;9.292;2023-03-01T10:24:46;18.98;;;13.45;;
50932;SDS011;36921;49.006;9.292;2023-03-01T10:27:25;18.50;;;12.63;;
50932;SDS011;36921;49.006;9.292;2023-03-01T10:32:36;15.57;;;11.70;;
50932;SDS011;36921;49.006;9.292;2023-03-01T10:35:13;17.45;;;12.63;;
50932;SDS011;36921;49.006;9.292;2023-03-01T10:37:46;18.52;;;12.60;;
50932;SDS011;36921;49.006;9.292;2023-03-01T10:40:22;16.67;;;12.27;;
50932;SDS011;36921;49.006;9.292;2023-03-01T10:42:48;16.73;;;11.93;;
50932;SDS011;36921;49.006;9.292;2023-03-01T10:45:30;20.90;;;13.15;;
50932;SDS011;36921;49.006;9.292;2023-03-01T10:48:04;18.25;;;12.52;;
50932;SDS011;36921;49.006;9.292;2023-03-01T10:50:37;16.48;;;12.32;;
50932;SDS011;36921;49.006;9.292;2023-03-01T10:53:04;18.65;;;11.48;;
50932;SDS011;36921;49.006;9.292;2023-03-01T10:55:40;20.45;;;12.52;;
50932;SDS011;36921;49.006;9.292;2023-03-01T10:58:07;17.23;;;12.02;;
50932;SDS011;36921;49.006;9.292;2023-03-01T11:03:16;16.73;;;12.30;;
50932;SDS011;36921;49.006;9.292;2023-03-01T11:05:56;17.63;;;12.20;;
50932;SDS011;36921;49.006;9.292;2023-03-01T11:08:37;19.60;;;12.88;;
50932;SDS011;36921;49.006;9.292;2023-03-01T11:13:57;16.48;;;12.10;;
50932;SDS011;36921;49.006;9.292;2023-03-01T11:16:29;22.08;;;12.20;;
50932;SDS011;36921;49.006;9.292;2023-03-01T11:19:01;16.65;;;12.18;;
50932;SDS011;36921;49.006;9.292;2023-03-01T11:21:53;15.80;;;12.15;;
50932;SDS011;36921;49.006;9.292;2023-03-01T11:24:29;17.80;;;12.48;;
50932;SDS011;36921;49.006;9.292;2023-03-01T11:26:59;16.58;;;12.48;;
50932;SDS011;36921;49.006;9.292;2023-03-01T11:29:33;18.00;;;12.50;;
50932;SDS011;36921;49.006;9.292;2023-03-01T11:32:08;17.25;;;12.48;;
50932;SDS011;36921;49.006;9.292;2023-03-01T11:34:38;17.05;;;12.20;;
50932;SDS011;36921;49.006;9.292;2023-03-01T11:37:28;16.33;;;11.73;;
50932;SDS011;36921;49.006;9.292;2023-03-01T11:40:17;20.02;;;12.25;;
50932;SDS011;36921;49.006;9.292;2023-03-01T11:43:11;16.30;;;12.23;;
50932;SDS011;36921;49.006;9.292;2023-03-01T11:45:47;15.88;;;12.38;;
50932;SDS011;36921;49.006;9.292;2023-03-01T11:50:58;17.33;;;12.93;;
50932;SDS011;36921;49.006;9.292;2023-03-01T11:56:31;19.77;;;12.82;;
50932;SDS011;36921;49.006;9.292;2023-03-01T11:59:03;17.35;;;12.68;;
50932;SDS011;36921;49.006;9.292;2023-03-01T12:21:03;18.13;;;12.68;;
50932;SDS011;36921;49.006;9.292;2023-03-01T12:23:54;20.25;;;12.45;;
50932;SDS011;36921;49.006;9.292;2023-03-01T12:26:41;17.58;;;11.98;;
50932;SDS011;36921;49.006;9.292;2023-03-01T12:43:44;16.75;;;11.82;;
50932;SDS011;36921;49.006;9.292;2023-03-01T12:51:42;16.67;;;12.30;;
50932;SDS011;36921;49.006;9.292;2023-03-01T12:54:15;16.40;;;12.05;;
50932;SDS011;36921;49.006;9.292;2023-03-01T12:56:45;16.80;;;12.05;;
50932;SDS011;36921;49.006;9.292;2023-03-01T13:10:11;18.70;;;11.60;;
50932;SDS011;36921;49.006;9.292;2023-03-01T13:17:54;21.17;;;12.77;;
50932;SDS011;36921;49.006;9.292;2023-03-01T13:31:11;19.45;;;13.02;;
50932;SDS011;36921;49.006;9.292;2023-03-01T13:33:55;23.30;;;13.53;;
50932;SDS011;36921;49.006;9.292;2023-03-01T13:44:16;22.80;;;12.98;;
50932;SDS011;36921;49.006;9.292;2023-03-01T13:46:45;24.08;;;12.90;;
50932;SDS011;36921;49.006;9.292;2023-03-01T13:49:13;20.00;;;13.23;;
50932;SDS011;36921;49.006;9.292;2023-03-01T13:51:41;20.25;;;12.77;;
50932;SDS011;36921;49.006;9.292;2023-03-01T13:54:12;19.73;;;12.75;;
50932;SDS011;36921;49.006;9.292;2023-03-01T13:56:40;20.48;;;13.82;;
50932;SDS011;36921;49.006;9.292;2023-03-01T13:59:06;24.38;;;13.15;;
50932;SDS011;36921;49.006;9.292;2023-03-01T14:01:38;23.35;;;12.70;;
50932;SDS011;36921;49.006;9.292;2023-03-01T14:04:18;24.52;;;11.90;;
50932;SDS011;36921;49.006;9.292;2023-03-01T14:06:46;19.20;;;12.60;;
50932;SDS011;36921;49.006;9.292;2023-03-01T14:09:18;19.98;;;12.70;;
50932;SDS011;36921;49.006;9.292;2023-03-01T14:17:58;20.45;;;12.68;;
50932;SDS011;36921;49.006;9.292;2023-03-01T14:22:44;21.88;;;12.27;;
50932;SDS011;36921;49.006;9.292;2023-03-01T14:25:17;20.20;;;13.07;;
50932;SDS011;36921;49.006;9.292;2023-03-01T14:27:50;37.17;;;13.35;;
50932;SDS011;36921;49.006;9.292;2023-03-01T14:30:24;23.85;;;12.77;;
50932;SDS011;36921;49.006;9.292;2023-03-01T14:32:57;21.10;;;11.77;;
50932;SDS011;36921;49.006;9.292;2023-03-01T14:35:25;19.23;;;12.43;;
50932;SDS011;36921;49.006;9.292;2023-03-01T14:37:53;20.15;;;11.65;;
50932;SDS011;36921;49.006;9.292;2023-03-01T14:40:22;19.75;;;12.07;;
50932;SDS011;36921;49.006;9.292;2023-03-01T14:42:50;22.50;;;13.73;;
50932;SDS011;36921;49.006;9.292;2023-03-01T14:45:16;20.92;;;12.57;;
50932;SDS011;36921;49.006;9.292;2023-03-01T14:47:43;21.60;;;12.80;;
50932;SDS011;36921;49.006;9.292;2023-03-01T14:50:15;20.08;;;11.75;;
50932;SDS011;36921;49.006;9.292;2023-03-01T14:52:47;19.33;;;12.00;;
50932;SDS011;36921;49.006;9.292;2023-03-01T14:55:16;21.23;;;12.20;;
50932;SDS011;36921;49.006;9.292;2023-03-01T14:57:44;23.48;;;12.32;;
50932;SDS011;36921;49.006;9.292;2023-03-01T15:00:23;19.15;;;12.43;;
50932;SDS011;36921;49.006;9.292;2023-03-01T15:02:51;21.58;;;12.18;;
50932;SDS011;36921;49.006;9.292;2023-03-01T15:05:18;25.85;;;13.13;;
50932;SDS011;36921;49.006;9.292;2023-03-01T15:07:50;21.02;;;12.10;;
50932;SDS011;36921;49.006;9.292;2023-03-01T15:10:21;21.92;;;12.60;;
50932;SDS011;36921;49.006;9.292;2023-03-01T15:12:48;22.55;;;11.60;;
50932;SDS011;36921;49.006;9.292;2023-03-01T15:15:33;20.13;;;12.40;;
50932;SDS011;36921;49.006;9.292;2023-03-01T15:18:05;22.20;;;12.20;;
50932;SDS011;36921;49.006;9.292;2023-03-01T15:20:37;20.88;;;12.25;;
50932;SDS011;36921;49.006;9.292;2023-03-01T15:23:04;26.73;;;12.55;;
50932;SDS011;36921;49.006;9.292;2023-03-01T15:25:29;22.88;;;12.27;;
50932;SDS011;36921;49.006;9.292;2023-03-01T15:27:58;23.15;;;13.13;;
50932;SDS011;36921;49.006;9.292;2023-03-01T15:30:34;24.45;;;12.07;;
50932;SDS011;36921;49.006;9.292;2023-03-01T15:33:47;21.35;;;12.50;;
50932;SDS011;36921;49.006;9.292;2023-03-01T15:35:48;23.60;;;11.57;;
50932;SDS011;36921;49.006;9.292;2023-03-01T15:38:35;22.60;;;11.45;;
50932;SDS011;36921;49.006;9.292;2023-03-01T15:41:22;20.20;;;11.73;;
50932;SDS011;36921;49.006;9.292;2023-03-01T15:43:50;19.15;;;11.80;;
50932;SDS011;36921;49.006;9.292;2023-03-01T15:46:23;21.37;;;11.53;;
50932;SDS011;36921;49.006;9.292;2023-03-01T15:48:54;23.50;;;11.98;;
50932;SDS011;36921;49.006;9.292;2023-03-01T15:51:26;22.50;;;11.55;;
50932;SDS011;36921;49.006;9.292;2023-03-01T15:53:54;22.50;;;11.32;;
50932;SDS011;36921;49.006;9.292;2023-03-01T15:56:21;20.52;;;11.02;;
50932;SDS011;36921;49.006;9.292;2023-03-01T15:58:46;21.65;;;11.93;;
50932;SDS011;36921;49.006;9.292;2023-03-01T16:01:15;19.58;;;11.20;;
50932;SDS011;36921;49.006;9.292;2023-03-01T16:03:42;24.50;;;11.27;;
50932;SDS011;36921;49.006;9.292;2023-03-01T16:06:08;26.63;;;11.02;;
50932;SDS011;36921;49.006;9.292;2023-03-01T16:08:35;23.75;;;11.77;;
50932;SDS011;36921;49.006;9.292;2023-03-01T16:11:00;22.20;;;11.98;;
50932;SDS011;36921;49.006;9.292;2023-03-01T16:13:29;22.85;;;11.90;;
50932;SDS011;36921;49.006;9.292;2023-03-01T16:15:56;26.13;;;12.25;;
50932;SDS011;36921;49.006;9.292;2023-03-01T16:18:21;36.85;;;14.07;;
50932;SDS011;36921;49.006;9.292;2023-03-01T16:20:47;24.48;;;11.55;;
50932;SDS011;36921;49.006;9.292;2023-03-01T16:23:13;23.75;;;10.57;;
50932;SDS011;36921;49.006;9.292;2023-03-01T16:25:39;21.38;;;10.15;;
50932;SDS011;36921;49.006;9.292;2023-03-01T16:28:05;23.30;;;11.13;;
50932;SDS011;36921;49.006;9.292;2023-03-01T16:30:33;22.13;;;10.63;;
50932;SDS011;36921;49.006;9.292;2023-03-01T16:33:00;26.27;;;11.43;;
50932;SDS011;36921;49.006;9.292;2023-03-01T16:35:25;21.13;;;10.60;;
50932;SDS011;36921;49.006;9.292;2023-03-01T16:37:51;24.05;;;11.05;;
50932;SDS011;36921;49.006;9.292;2023-03-01T16:42:46;23.17;;;11.02;;
50932;SDS011;36921;49.006;9.292;2023-03-01T16:45:14;18.98;;;10.85;;
50932;SDS011;36921;49.006;9.292;2023-03-01T16:47:39;24.55;;;10.95;;